sensor_id;sensor_type;location;lat;lon;timestamp;temperature;humidity
21033;DHT22;10675;47.976;7.824;2024-03-07T00:00:10;6.30;99.90
21033;DHT22;10675;47.976;7.824;2024-03-07T00:02:47;6.30;99.90
21033;DHT22;10675;47.976;7.824;2024-03-07T00:05:21;6.30;99.90
21033;DHT22;10675;47.976;7.824;2024-03-07T00:07:48;6.30;99.90
21033;DHT22;10675;47.976;7.824;2024-03-07T00:10:14;6.30;99.90
21033;DHT22;10675;47.976;7.824;2024-03-07T00:12:41;6.30;99.90
21033;DHT22;10675;47.976;7.824;2024-03-07T00:15:11;6.20;99.90
21033;DHT22;10675;47.976;7.824;2024-03-07T00:17:37;6.30;99.90
21033;DHT22;10675;47.976;7.824;2024-03-07T00:20:03;6.30;99.90
21033;DHT22;10675;47.976;7.824;2024-03-07T00:22:30;6.30;99.90
21033;DHT22;10675;47.976;7.824;2024-03-07T00:24:56;6.30;99.90
21033;DHT22;10675;47.976;7.824;2024-03-07T00:27:22;6.30;99.90
21033;DHT22;10675;47.976;7.824;2024-03-07T00:29:48;6.30;99.90
21033;DHT22;10675;47.976;7.824;2024-03-07T00:32:22;6.30;99.90
21033;DHT22;10675;47.976;7.824;2024-03-07T00:34:48;6.30;99.90
21033;DHT22;10675;47.976;7.824;2024-03-07T00:37:14;6.30;99.90
21033;DHT22;10675;47.976;7.824;2024-03-07T00:39:40;6.30;99.90
21033;DHT22;10675;47.976;7.824;2024-03-07T00:42:07;6.30;99.90
21033;DHT22;10675;47.976;7.824;2024-03-07T00:44:32;6.30;99.90
21033;DHT22;10675;47.976;7.824;2024-03-07T00:47:00;6.30;99.90
21033;DHT22;10675;47.976;7.824;2024-03-07T00:49:25;6.30;99.90
21033;DHT22;10675;47.976;7.824;2024-03-07T00:51:51;6.30;99.90
21033;DHT22;10675;47.976;7.824;2024-03-07T00:54:16;6.30;99.90
21033;DHT22;10675;47.976;7.824;2024-03-07T00:56:42;6.20;99.90
21033;DHT22;10675;47.976;7.824;2024-03-07T00:59:07;6.30;99.90
21033;DHT22;10675;47.976;7.824;2024-03-07T01:01:33;6.30;99.90
21033;DHT22;10675;47.976;7.824;2024-03-07T01:04:01;6.30;99.90
21033;DHT22;10675;47.976;7.824;2024-03-07T01:06:27;6.20;99.90
21033;DHT22;10675;47.976;7.824;2024-03-07T01:08:53;6.20;99.90
21033;DHT22;10675;47.976;7.824;2024-03-07T01:11:19;6.30;99.90
21033;DHT22;10675;47.976;7.824;2024-03-07T01:13:44;6.30;99.90
21033;DHT22;10675;47.976;7.824;2024-03-07T01:16:10;6.30;99.90
21033;DHT22;10675;47.976;7.824;2024-03-07T01:18:37;6.30;99.90
21033;DHT22;10675;47.976;7.824;2024-03-07T01:21:04;6.30;99.90
21033;DHT22;10675;47.976;7.824;2024-03-07T01:23:31;6.30;99.90
21033;DHT22;10675;47.976;7.824;2024-03-07T01:25:57;6.30;99.90
21033;DHT22;10675;47.976;7.824;2024-03-07T01:28:24;6.30;99.90
21033;DHT22;10675;47.976;7.824;2024-03-07T01:30:50;6.30;99.90
21033;DHT22;10675;47.976;7.824;2024-03-07T01:33:16;6.30;99.90
21033;DHT22;10675;47.976;7.824;2024-03-07T01:35:41;6.30;99.90
21033;DHT22;10675;47.976;7.824;2024-03-07T01:38:07;6.30;99.90
21033;DHT22;10675;47.976;7.824;2024-03-07T01:40:34;6.30;99.90
21033;DHT22;10675;47.976;7.824;2024-03-07T01:43:01;6.30;99.90
21033;DHT22;10675;47.976;7.824;2024-03-07T01:45:27;6.20;99.90
21033;DHT22;10675;47.976;7.824;2024-03-07T01:47:53;6.20;99.90
21033;DHT22;10675;47.976;7.824;2024-03-07T01:50:20;6.20;99.90
21033;DHT22;10675;47.976;7.824;2024-03-07T01:52:46;6.20;99.90
21033;DHT22;10675;47.976;7.824;2024-03-07T01:55:11;6.20;99.90
21033;DHT22;10675;47.976;7.824;2024-03-07T01:57:38;6.20;99.90
21033;DHT22;10675;47.976;7.824;2024-03-07T02:00:04;6.20;99.90
21033;DHT22;10675;47.976;7.824;2024-03-07T02:02:32;6.20;99.90
21033;DHT22;10675;47.976;7.824;2024-03-07T02:04:58;6.20;99.90
21033;DHT22;10675;47.976;7.824;2024-03-07T02:07:23;6.10;99.90
21033;DHT22;10675;47.976;7.824;2024-03-07T02:09:49;6.20;99.90
21033;DHT22;10675;47.976;7.824;2024-03-07T02:12:14;6.10;99.90
21033;DHT22;10675;47.976;7.824;2024-03-07T02:14:40;6.10;99.90
21033;DHT22;10675;47.976;7.824;2024-03-07T02:17:06;6.10;99.90
21033;DHT22;10675;47.976;7.824;2024-03-07T02:19:32;6.10;99.90
21033;DHT22;10675;47.976;7.824;2024-03-07T02:21:58;6.20;99.90
21033;DHT22;10675;47.976;7.824;2024-03-07T02:24:24;6.10;99.90
21033;DHT22;10675;47.976;7.824;2024-03-07T02:26:49;6.20;99.90
21033;DHT22;10675;47.976;7.824;2024-03-07T02:29:15;6.10;99.90
21033;DHT22;10675;47.976;7.824;2024-03-07T02:31:41;6.10;99.90
21033;DHT22;10675;47.976;7.824;2024-03-07T02:34:07;6.10;99.90
21033;DHT22;10675;47.976;7.824;2024-03-07T02:36:33;6.20;99.90
21033;DHT22;10675;47.976;7.824;2024-03-07T02:38:59;6.20;99.90
21033;DHT22;10675;47.976;7.824;2024-03-07T02:41:25;6.10;99.90
21033;DHT22;10675;47.976;7.824;2024-03-07T02:43:51;6.10;99.90
21033;DHT22;10675;47.976;7.824;2024-03-07T02:46:17;6.10;99.90
21033;DHT22;10675;47.976;7.824;2024-03-07T02:48:43;6.10;99.90
21033;DHT22;10675;47.976;7.824;2024-03-07T02:51:09;6.10;99.90
21033;DHT22;10675;47.976;7.824;2024-03-07T02:53:35;6.10;99.90
21033;DHT22;10675;47.976;7.824;2024-03-07T02:56:00;6.10;99.90
21033;DHT22;10675;47.976;7.824;2024-03-07T02:58:26;6.10;99.90
21033;DHT22;10675;47.976;7.824;2024-03-07T03:01:00;6.10;99.90
21033;DHT22;10675;47.976;7.824;2024-03-07T03:03:29;6.10;99.90
21033;DHT22;10675;47.976;7.824;2024-03-07T03:05:57;6.10;99.90
21033;DHT22;10675;47.976;7.824;2024-03-07T03:08:23;6.10;99.90
21033;DHT22;10675;47.976;7.824;2024-03-07T03:10:49;6.00;99.90
21033;DHT22;10675;47.976;7.824;2024-03-07T03:13:16;6.00;99.90
21033;DHT22;10675;47.976;7.824;2024-03-07T03:15:42;6.00;99.90
21033;DHT22;10675;47.976;7.824;2024-03-07T03:18:08;5.90;99.90
21033;DHT22;10675;47.976;7.824;2024-03-07T03:20:35;5.90;99.90
21033;DHT22;10675;47.976;7.824;2024-03-07T03:23:05;5.90;99.90
21033;DHT22;10675;47.976;7.824;2024-03-07T03:25:32;5.90;99.90
21033;DHT22;10675;47.976;7.824;2024-03-07T03:28:06;5.90;99.90
21033;DHT22;10675;47.976;7.824;2024-03-07T03:30:38;5.80;99.90
21033;DHT22;10675;47.976;7.824;2024-03-07T03:33:04;5.80;99.90
21033;DHT22;10675;47.976;7.824;2024-03-07T03:35:31;5.70;99.90
21033;DHT22;10675;47.976;7.824;2024-03-07T03:37:56;5.70;99.90
21033;DHT22;10675;47.976;7.824;2024-03-07T03:40:22;5.70;99.90
21033;DHT22;10675;47.976;7.824;2024-03-07T03:42:48;5.60;99.90
21033;DHT22;10675;47.976;7.824;2024-03-07T03:45:14;5.60;99.90
21033;DHT22;10675;47.976;7.824;2024-03-07T03:47:41;5.60;99.90
21033;DHT22;10675;47.976;7.824;2024-03-07T03:50:09;5.50;99.90
21033;DHT22;10675;47.976;7.824;2024-03-07T03:52:35;5.50;99.90
21033;DHT22;10675;47.976;7.824;2024-03-07T03:55:01;5.50;99.90
21033;DHT22;10675;47.976;7.824;2024-03-07T03:57:28;5.40;99.90
21033;DHT22;10675;47.976;7.824;2024-03-07T03:59:54;5.40;99.90
21033;DHT22;10675;47.976;7.824;2024-03-07T04:02:20;5.40;99.90
21033;DHT22;10675;47.976;7.824;2024-03-07T04:04:46;5.40;99.90
21033;DHT22;10675;47.976;7.824;2024-03-07T04:07:12;5.40;99.90
21033;DHT22;10675;47.976;7.824;2024-03-07T04:09:38;5.40;99.90
21033;DHT22;10675;47.976;7.824;2024-03-07T04:12:04;5.40;99.90
21033;DHT22;10675;47.976;7.824;2024-03-07T04:14:31;5.40;99.90
21033;DHT22;10675;47.976;7.824;2024-03-07T04:16:58;5.30;99.90
21033;DHT22;10675;47.976;7.824;2024-03-07T04:19:24;5.40;99.90
21033;DHT22;10675;47.976;7.824;2024-03-07T04:21:50;5.30;99.90
21033;DHT22;10675;47.976;7.824;2024-03-07T04:24:17;5.20;99.90
21033;DHT22;10675;47.976;7.824;2024-03-07T04:26:42;5.30;99.90
21033;DHT22;10675;47.976;7.824;2024-03-07T04:29:08;5.30;99.90
21033;DHT22;10675;47.976;7.824;2024-03-07T04:31:34;5.20;99.90
21033;DHT22;10675;47.976;7.824;2024-03-07T04:34:00;5.20;99.90
21033;DHT22;10675;47.976;7.824;2024-03-07T04:36:25;5.20;99.90
21033;DHT22;10675;47.976;7.824;2024-03-07T04:38:51;5.30;99.90
21033;DHT22;10675;47.976;7.824;2024-03-07T04:41:17;5.30;99.90
21033;DHT22;10675;47.976;7.824;2024-03-07T04:43:44;5.40;99.90
21033;DHT22;10675;47.976;7.824;2024-03-07T04:46:09;5.50;99.90
21033;DHT22;10675;47.976;7.824;2024-03-07T04:48:35;5.50;99.90
21033;DHT22;10675;47.976;7.824;2024-03-07T04:51:00;5.50;99.90
21033;DHT22;10675;47.976;7.824;2024-03-07T04:53:26;5.50;99.90
21033;DHT22;10675;47.976;7.824;2024-03-07T04:55:51;5.40;99.90
21033;DHT22;10675;47.976;7.824;2024-03-07T04:58:17;5.40;99.90
21033;DHT22;10675;47.976;7.824;2024-03-07T05:00:42;5.40;99.90
21033;DHT22;10675;47.976;7.824;2024-03-07T05:03:08;5.50;99.90
21033;DHT22;10675;47.976;7.824;2024-03-07T05:05:35;5.50;99.90
21033;DHT22;10675;47.976;7.824;2024-03-07T05:08:00;5.50;99.90
21033;DHT22;10675;47.976;7.824;2024-03-07T05:10:26;5.30;99.90
21033;DHT22;10675;47.976;7.824;2024-03-07T05:12:55;5.30;99.90
21033;DHT22;10675;47.976;7.824;2024-03-07T05:15:20;5.20;99.90
21033;DHT22;10675;47.976;7.824;2024-03-07T05:17:46;5.20;99.90
21033;DHT22;10675;47.976;7.824;2024-03-07T05:20:11;5.20;99.90
21033;DHT22;10675;47.976;7.824;2024-03-07T05:22:38;5.20;99.90
21033;DHT22;10675;47.976;7.824;2024-03-07T05:25:07;5.20;99.90
21033;DHT22;10675;47.976;7.824;2024-03-07T05:27:32;5.20;99.90
21033;DHT22;10675;47.976;7.824;2024-03-07T05:29:59;5.20;99.90
21033;DHT22;10675;47.976;7.824;2024-03-07T05:32:26;5.10;99.90
21033;DHT22;10675;47.976;7.824;2024-03-07T05:34:52;5.10;99.90
21033;DHT22;10675;47.976;7.824;2024-03-07T05:37:21;5.00;99.90
21033;DHT22;10675;47.976;7.824;2024-03-07T05:39:50;5.00;99.90
21033;DHT22;10675;47.976;7.824;2024-03-07T05:42:15;5.10;99.90
21033;DHT22;10675;47.976;7.824;2024-03-07T05:44:41;5.00;99.90
21033;DHT22;10675;47.976;7.824;2024-03-07T05:47:07;5.10;99.90
21033;DHT22;10675;47.976;7.824;2024-03-07T05:49:34;5.00;99.90
21033;DHT22;10675;47.976;7.824;2024-03-07T05:52:00;5.10;99.90
21033;DHT22;10675;47.976;7.824;2024-03-07T05:54:25;5.00;99.90
21033;DHT22;10675;47.976;7.824;2024-03-07T05:56:51;5.00;99.90
21033;DHT22;10675;47.976;7.824;2024-03-07T05:59:16;5.00;99.90
21033;DHT22;10675;47.976;7.824;2024-03-07T06:01:42;5.00;99.90
21033;DHT22;10675;47.976;7.824;2024-03-07T06:04:09;5.00;99.90
21033;DHT22;10675;47.976;7.824;2024-03-07T06:06:36;5.00;99.90
21033;DHT22;10675;47.976;7.824;2024-03-07T06:09:03;5.00;99.90
21033;DHT22;10675;47.976;7.824;2024-03-07T06:11:33;5.00;99.90
21033;DHT22;10675;47.976;7.824;2024-03-07T06:13:59;5.10;99.90
21033;DHT22;10675;47.976;7.824;2024-03-07T06:16:24;5.10;99.90
21033;DHT22;10675;47.976;7.824;2024-03-07T06:18:50;5.10;99.90
21033;DHT22;10675;47.976;7.824;2024-03-07T06:21:17;5.10;99.90
21033;DHT22;10675;47.976;7.824;2024-03-07T06:23:44;5.00;99.90
21033;DHT22;10675;47.976;7.824;2024-03-07T06:26:13;5.10;99.90
21033;DHT22;10675;47.976;7.824;2024-03-07T06:28:42;5.10;99.90
21033;DHT22;10675;47.976;7.824;2024-03-07T06:31:08;5.10;99.90
21033;DHT22;10675;47.976;7.824;2024-03-07T06:33:33;5.20;99.90
21033;DHT22;10675;47.976;7.824;2024-03-07T06:35:59;5.10;99.90
21033;DHT22;10675;47.976;7.824;2024-03-07T06:38:27;5.20;99.90
21033;DHT22;10675;47.976;7.824;2024-03-07T06:40:52;5.30;99.90
21033;DHT22;10675;47.976;7.824;2024-03-07T06:43:18;5.30;99.90
21033;DHT22;10675;47.976;7.824;2024-03-07T06:45:44;5.40;99.90
21033;DHT22;10675;47.976;7.824;2024-03-07T06:48:11;5.50;99.90
21033;DHT22;10675;47.976;7.824;2024-03-07T06:50:38;5.70;99.90
21033;DHT22;10675;47.976;7.824;2024-03-07T06:53:04;5.70;99.90
21033;DHT22;10675;47.976;7.824;2024-03-07T06:55:32;5.80;99.90
21033;DHT22;10675;47.976;7.824;2024-03-07T06:57:59;5.70;99.90
21033;DHT22;10675;47.976;7.824;2024-03-07T07:00:25;5.80;99.90
21033;DHT22;10675;47.976;7.824;2024-03-07T07:02:52;5.70;99.90
21033;DHT22;10675;47.976;7.824;2024-03-07T07:05:20;5.80;99.90
21033;DHT22;10675;47.976;7.824;2024-03-07T07:07:45;5.80;99.90
21033;DHT22;10675;47.976;7.824;2024-03-07T07:10:14;5.90;99.90
21033;DHT22;10675;47.976;7.824;2024-03-07T07:12:45;5.90;99.90
21033;DHT22;10675;47.976;7.824;2024-03-07T07:15:12;6.00;99.90
21033;DHT22;10675;47.976;7.824;2024-03-07T07:17:38;6.00;99.90
21033;DHT22;10675;47.976;7.824;2024-03-07T07:20:04;6.10;99.90
21033;DHT22;10675;47.976;7.824;2024-03-07T07:22:36;6.10;99.90
21033;DHT22;10675;47.976;7.824;2024-03-07T07:25:02;6.10;99.90
21033;DHT22;10675;47.976;7.824;2024-03-07T07:27:31;6.20;99.90
21033;DHT22;10675;47.976;7.824;2024-03-07T07:29:56;6.20;99.90
21033;DHT22;10675;47.976;7.824;2024-03-07T07:32:23;6.20;99.90
21033;DHT22;10675;47.976;7.824;2024-03-07T07:34:49;6.30;99.90
21033;DHT22;10675;47.976;7.824;2024-03-07T07:37:14;6.40;99.90
21033;DHT22;10675;47.976;7.824;2024-03-07T07:39:40;6.40;99.90
21033;DHT22;10675;47.976;7.824;2024-03-07T07:42:05;6.50;99.90
21033;DHT22;10675;47.976;7.824;2024-03-07T07:44:31;6.60;99.90
21033;DHT22;10675;47.976;7.824;2024-03-07T07:46:57;6.60;99.90
21033;DHT22;10675;47.976;7.824;2024-03-07T07:49:22;6.60;99.90
21033;DHT22;10675;47.976;7.824;2024-03-07T07:51:48;6.80;99.90
21033;DHT22;10675;47.976;7.824;2024-03-07T07:54:18;6.70;99.90
21033;DHT22;10675;47.976;7.824;2024-03-07T07:56:43;6.70;99.90
21033;DHT22;10675;47.976;7.824;2024-03-07T07:59:09;6.60;99.90
21033;DHT22;10675;47.976;7.824;2024-03-07T08:01:36;6.60;99.90
21033;DHT22;10675;47.976;7.824;2024-03-07T08:04:02;6.60;99.90
21033;DHT22;10675;47.976;7.824;2024-03-07T08:06:28;6.80;99.90
21033;DHT22;10675;47.976;7.824;2024-03-07T08:08:53;6.80;99.90
21033;DHT22;10675;47.976;7.824;2024-03-07T08:11:19;6.70;99.90
21033;DHT22;10675;47.976;7.824;2024-03-07T08:13:44;6.80;99.90
21033;DHT22;10675;47.976;7.824;2024-03-07T08:16:12;7.00;99.90
21033;DHT22;10675;47.976;7.824;2024-03-07T08:18:38;7.00;99.90
21033;DHT22;10675;47.976;7.824;2024-03-07T08:21:04;7.00;99.90
21033;DHT22;10675;47.976;7.824;2024-03-07T08:23:30;7.20;99.90
21033;DHT22;10675;47.976;7.824;2024-03-07T08:25:56;7.20;99.90
21033;DHT22;10675;47.976;7.824;2024-03-07T08:28:23;6.90;99.90
21033;DHT22;10675;47.976;7.824;2024-03-07T08:30:48;6.80;99.90
21033;DHT22;10675;47.976;7.824;2024-03-07T08:33:14;6.80;99.90
21033;DHT22;10675;47.976;7.824;2024-03-07T08:35:40;6.50;99.90
21033;DHT22;10675;47.976;7.824;2024-03-07T08:38:05;6.50;99.90
21033;DHT22;10675;47.976;7.824;2024-03-07T08:40:31;6.20;99.90
21033;DHT22;10675;47.976;7.824;2024-03-07T08:42:58;6.10;99.90
21033;DHT22;10675;47.976;7.824;2024-03-07T08:45:25;6.30;99.90
21033;DHT22;10675;47.976;7.824;2024-03-07T08:47:52;6.40;99.90
21033;DHT22;10675;47.976;7.824;2024-03-07T08:50:19;6.30;99.90
21033;DHT22;10675;47.976;7.824;2024-03-07T08:52:46;6.50;99.90
21033;DHT22;10675;47.976;7.824;2024-03-07T08:55:14;6.50;99.90
21033;DHT22;10675;47.976;7.824;2024-03-07T08:57:40;6.50;99.90
21033;DHT22;10675;47.976;7.824;2024-03-07T09:00:07;6.60;99.90
21033;DHT22;10675;47.976;7.824;2024-03-07T09:02:40;6.40;99.90
21033;DHT22;10675;47.976;7.824;2024-03-07T09:05:06;6.60;99.90
21033;DHT22;10675;47.976;7.824;2024-03-07T09:07:32;6.60;99.90
21033;DHT22;10675;47.976;7.824;2024-03-07T09:09:58;6.80;99.90
21033;DHT22;10675;47.976;7.824;2024-03-07T09:12:23;6.80;99.90
21033;DHT22;10675;47.976;7.824;2024-03-07T09:14:51;6.80;99.90
21033;DHT22;10675;47.976;7.824;2024-03-07T09:17:17;6.80;99.90
21033;DHT22;10675;47.976;7.824;2024-03-07T09:19:43;6.80;99.90
21033;DHT22;10675;47.976;7.824;2024-03-07T09:22:09;6.80;99.90
21033;DHT22;10675;47.976;7.824;2024-03-07T09:24:34;6.70;99.90
21033;DHT22;10675;47.976;7.824;2024-03-07T09:27:00;6.80;99.90
21033;DHT22;10675;47.976;7.824;2024-03-07T09:29:26;7.00;99.90
21033;DHT22;10675;47.976;7.824;2024-03-07T09:31:53;7.00;99.90
21033;DHT22;10675;47.976;7.824;2024-03-07T09:34:19;6.80;99.90
21033;DHT22;10675;47.976;7.824;2024-03-07T09:36:48;6.80;99.90
21033;DHT22;10675;47.976;7.824;2024-03-07T09:39:17;6.90;99.90
21033;DHT22;10675;47.976;7.824;2024-03-07T09:41:44;7.00;99.90
21033;DHT22;10675;47.976;7.824;2024-03-07T09:44:12;7.30;99.90
21033;DHT22;10675;47.976;7.824;2024-03-07T09:46:40;7.30;99.90
21033;DHT22;10675;47.976;7.824;2024-03-07T09:49:05;7.30;99.90
21033;DHT22;10675;47.976;7.824;2024-03-07T09:51:33;7.30;99.90
21033;DHT22;10675;47.976;7.824;2024-03-07T09:54:00;7.40;99.90
21033;DHT22;10675;47.976;7.824;2024-03-07T09:56:28;7.30;99.90
21033;DHT22;10675;47.976;7.824;2024-03-07T09:58:57;7.40;99.90
21033;DHT22;10675;47.976;7.824;2024-03-07T10:01:26;7.70;99.90
21033;DHT22;10675;47.976;7.824;2024-03-07T10:03:59;7.80;99.90
21033;DHT22;10675;47.976;7.824;2024-03-07T10:06:35;8.00;99.90
21033;DHT22;10675;47.976;7.824;2024-03-07T10:09:01;8.00;99.90
21033;DHT22;10675;47.976;7.824;2024-03-07T10:11:29;8.10;99.90
21033;DHT22;10675;47.976;7.824;2024-03-07T10:13:54;8.20;99.90
21033;DHT22;10675;47.976;7.824;2024-03-07T10:16:20;8.10;99.90
21033;DHT22;10675;47.976;7.824;2024-03-07T10:18:45;8.00;99.90
21033;DHT22;10675;47.976;7.824;2024-03-07T10:21:14;7.70;99.90
21033;DHT22;10675;47.976;7.824;2024-03-07T10:23:42;7.70;99.90
21033;DHT22;10675;47.976;7.824;2024-03-07T10:26:07;7.60;99.90
21033;DHT22;10675;47.976;7.824;2024-03-07T10:28:35;7.50;99.90
21033;DHT22;10675;47.976;7.824;2024-03-07T10:31:00;7.80;99.90
21033;DHT22;10675;47.976;7.824;2024-03-07T10:33:27;7.80;99.90
21033;DHT22;10675;47.976;7.824;2024-03-07T10:35:53;7.50;99.90
21033;DHT22;10675;47.976;7.824;2024-03-07T10:38:19;7.50;99.90
21033;DHT22;10675;47.976;7.824;2024-03-07T10:40:47;7.50;99.90
21033;DHT22;10675;47.976;7.824;2024-03-07T10:43:13;7.30;99.90
21033;DHT22;10675;47.976;7.824;2024-03-07T10:45:44;7.30;99.90
21033;DHT22;10675;47.976;7.824;2024-03-07T10:48:18;7.30;99.90
21033;DHT22;10675;47.976;7.824;2024-03-07T10:53:22;7.50;99.90
21033;DHT22;10675;47.976;7.824;2024-03-07T10:58:42;7.80;99.90
21033;DHT22;10675;47.976;7.824;2024-03-07T11:01:10;7.90;99.90
21033;DHT22;10675;47.976;7.824;2024-03-07T11:03:36;8.20;99.90
21033;DHT22;10675;47.976;7.824;2024-03-07T11:06:02;8.30;99.90
21033;DHT22;10675;47.976;7.824;2024-03-07T11:08:33;8.60;99.90
21033;DHT22;10675;47.976;7.824;2024-03-07T11:11:00;8.30;99.90
21033;DHT22;10675;47.976;7.824;2024-03-07T11:13:25;8.20;99.90
21033;DHT22;10675;47.976;7.824;2024-03-07T11:15:52;8.00;99.90
21033;DHT22;10675;47.976;7.824;2024-03-07T11:18:23;8.10;99.90
21033;DHT22;10675;47.976;7.824;2024-03-07T11:20:49;8.30;99.90
21033;DHT22;10675;47.976;7.824;2024-03-07T11:23:33;8.20;99.90
21033;DHT22;10675;47.976;7.824;2024-03-07T11:26:10;8.20;99.90
21033;DHT22;10675;47.976;7.824;2024-03-07T11:28:40;8.10;99.90
21033;DHT22;10675;47.976;7.824;2024-03-07T11:33:39;8.50;99.90
21033;DHT22;10675;47.976;7.824;2024-03-07T11:36:09;8.40;99.90
21033;DHT22;10675;47.976;7.824;2024-03-07T11:38:58;8.40;99.90
21033;DHT22;10675;47.976;7.824;2024-03-07T11:41:23;8.50;99.90
21033;DHT22;10675;47.976;7.824;2024-03-07T11:43:49;8.80;99.90
21033;DHT22;10675;47.976;7.824;2024-03-07T11:46:17;9.00;99.90
21033;DHT22;10675;47.976;7.824;2024-03-07T11:48:43;9.40;99.90
21033;DHT22;10675;47.976;7.824;2024-03-07T11:51:18;9.80;99.90
21033;DHT22;10675;47.976;7.824;2024-03-07T11:53:46;10.10;99.90
21033;DHT22;10675;47.976;7.824;2024-03-07T11:56:13;10.10;99.90
21033;DHT22;10675;47.976;7.824;2024-03-07T11:58:41;10.00;99.90
21033;DHT22;10675;47.976;7.824;2024-03-07T12:01:09;10.00;99.90
21033;DHT22;10675;47.976;7.824;2024-03-07T12:03:36;10.00;99.90
21033;DHT22;10675;47.976;7.824;2024-03-07T12:06:03;10.40;99.90
21033;DHT22;10675;47.976;7.824;2024-03-07T12:08:29;10.80;99.90
21033;DHT22;10675;47.976;7.824;2024-03-07T12:10:55;10.90;99.90
21033;DHT22;10675;47.976;7.824;2024-03-07T12:13:21;10.90;99.90
21033;DHT22;10675;47.976;7.824;2024-03-07T12:15:48;11.00;99.90
21033;DHT22;10675;47.976;7.824;2024-03-07T12:18:17;11.30;99.90
21033;DHT22;10675;47.976;7.824;2024-03-07T12:20:44;11.20;99.90
21033;DHT22;10675;47.976;7.824;2024-03-07T12:23:16;10.90;99.90
21033;DHT22;10675;47.976;7.824;2024-03-07T12:25:45;10.60;99.90
21033;DHT22;10675;47.976;7.824;2024-03-07T12:28:12;10.40;99.90
21033;DHT22;10675;47.976;7.824;2024-03-07T12:30:48;10.10;99.90
21033;DHT22;10675;47.976;7.824;2024-03-07T12:33:18;10.40;99.90
21033;DHT22;10675;47.976;7.824;2024-03-07T12:35:46;10.00;99.90
21033;DHT22;10675;47.976;7.824;2024-03-07T12:38:13;9.70;99.90
21033;DHT22;10675;47.976;7.824;2024-03-07T12:40:44;9.40;99.90
21033;DHT22;10675;47.976;7.824;2024-03-07T12:45:51;9.30;99.90
21033;DHT22;10675;47.976;7.824;2024-03-07T12:48:17;9.30;99.90
21033;DHT22;10675;47.976;7.824;2024-03-07T12:50:45;9.20;99.90
21033;DHT22;10675;47.976;7.824;2024-03-07T12:53:11;9.30;99.90
21033;DHT22;10675;47.976;7.824;2024-03-07T12:55:40;9.20;99.90
21033;DHT22;10675;47.976;7.824;2024-03-07T12:58:11;9.20;99.90
21033;DHT22;10675;47.976;7.824;2024-03-07T13:00:40;9.30;99.90
21033;DHT22;10675;47.976;7.824;2024-03-07T13:03:09;9.10;99.90
21033;DHT22;10675;47.976;7.824;2024-03-07T13:05:38;9.30;99.90
21033;DHT22;10675;47.976;7.824;2024-03-07T13:08:08;9.40;99.90
21033;DHT22;10675;47.976;7.824;2024-03-07T13:10:38;9.50;99.90
21033;DHT22;10675;47.976;7.824;2024-03-07T13:13:03;9.30;99.90
21033;DHT22;10675;47.976;7.824;2024-03-07T13:15:30;9.40;99.90
21033;DHT22;10675;47.976;7.824;2024-03-07T13:17:55;9.60;99.90
21033;DHT22;10675;47.976;7.824;2024-03-07T13:20:21;9.50;99.90
21033;DHT22;10675;47.976;7.824;2024-03-07T13:22:51;9.50;99.90
21033;DHT22;10675;47.976;7.824;2024-03-07T13:25:20;9.60;99.90
21033;DHT22;10675;47.976;7.824;2024-03-07T13:28:01;9.40;99.90
21033;DHT22;10675;47.976;7.824;2024-03-07T13:30:27;9.60;99.90
21033;DHT22;10675;47.976;7.824;2024-03-07T13:32:57;9.80;99.90
21033;DHT22;10675;47.976;7.824;2024-03-07T13:35:25;10.00;99.90
21033;DHT22;10675;47.976;7.824;2024-03-07T13:37:52;10.00;99.90
21033;DHT22;10675;47.976;7.824;2024-03-07T13:40:19;10.00;99.90
21033;DHT22;10675;47.976;7.824;2024-03-07T13:42:49;10.00;99.90
21033;DHT22;10675;47.976;7.824;2024-03-07T13:45:20;9.80;99.90
21033;DHT22;10675;47.976;7.824;2024-03-07T13:47:47;9.90;99.90
21033;DHT22;10675;47.976;7.824;2024-03-07T13:50:15;10.10;99.90
21033;DHT22;10675;47.976;7.824;2024-03-07T13:52:40;10.10;99.90
21033;DHT22;10675;47.976;7.824;2024-03-07T13:55:10;10.10;99.90
21033;DHT22;10675;47.976;7.824;2024-03-07T13:57:45;10.20;99.90
21033;DHT22;10675;47.976;7.824;2024-03-07T14:00:36;10.30;99.90
21033;DHT22;10675;47.976;7.824;2024-03-07T14:06:03;10.60;99.90
21033;DHT22;10675;47.976;7.824;2024-03-07T14:21:09;11.20;99.90
21033;DHT22;10675;47.976;7.824;2024-03-07T14:31:05;10.20;99.90
21033;DHT22;10675;47.976;7.824;2024-03-07T14:36:19;10.00;99.90
21033;DHT22;10675;47.976;7.824;2024-03-07T14:38:52;10.10;99.90
21033;DHT22;10675;47.976;7.824;2024-03-07T14:41:20;10.20;99.90
21033;DHT22;10675;47.976;7.824;2024-03-07T14:43:49;10.30;99.90
21033;DHT22;10675;47.976;7.824;2024-03-07T14:46:16;10.20;99.90
21033;DHT22;10675;47.976;7.824;2024-03-07T14:48:42;10.30;99.90
21033;DHT22;10675;47.976;7.824;2024-03-07T14:51:10;10.10;99.90
21033;DHT22;10675;47.976;7.824;2024-03-07T14:53:42;10.20;99.90
21033;DHT22;10675;47.976;7.824;2024-03-07T14:56:08;10.20;99.90
21033;DHT22;10675;47.976;7.824;2024-03-07T14:58:34;10.00;99.90
21033;DHT22;10675;47.976;7.824;2024-03-07T15:01:00;9.80;99.90
21033;DHT22;10675;47.976;7.824;2024-03-07T15:03:27;9.90;99.90
21033;DHT22;10675;47.976;7.824;2024-03-07T15:05:54;9.80;99.90
21033;DHT22;10675;47.976;7.824;2024-03-07T15:08:19;9.70;99.90
21033;DHT22;10675;47.976;7.824;2024-03-07T15:11:02;9.80;99.90
21033;DHT22;10675;47.976;7.824;2024-03-07T15:13:34;9.70;99.90
21033;DHT22;10675;47.976;7.824;2024-03-07T15:16:00;9.70;99.90
21033;DHT22;10675;47.976;7.824;2024-03-07T15:18:25;9.60;99.90
21033;DHT22;10675;47.976;7.824;2024-03-07T15:20:51;9.50;99.90
21033;DHT22;10675;47.976;7.824;2024-03-07T15:23:17;9.60;99.90
21033;DHT22;10675;47.976;7.824;2024-03-07T15:25:43;9.40;99.90
21033;DHT22;10675;47.976;7.824;2024-03-07T15:28:08;9.40;99.90
21033;DHT22;10675;47.976;7.824;2024-03-07T15:30:34;9.40;99.90
21033;DHT22;10675;47.976;7.824;2024-03-07T15:33:03;9.50;99.90
21033;DHT22;10675;47.976;7.824;2024-03-07T15:35:32;9.40;99.90
21033;DHT22;10675;47.976;7.824;2024-03-07T15:37:58;9.50;99.90
21033;DHT22;10675;47.976;7.824;2024-03-07T15:40:24;9.40;99.90
21033;DHT22;10675;47.976;7.824;2024-03-07T15:42:50;9.50;99.90
21033;DHT22;10675;47.976;7.824;2024-03-07T15:45:21;9.50;99.90
21033;DHT22;10675;47.976;7.824;2024-03-07T15:47:49;9.50;99.90
21033;DHT22;10675;47.976;7.824;2024-03-07T15:50:15;9.50;99.90
21033;DHT22;10675;47.976;7.824;2024-03-07T15:52:48;9.60;99.90
21033;DHT22;10675;47.976;7.824;2024-03-07T15:55:17;9.60;99.90
21033;DHT22;10675;47.976;7.824;2024-03-07T15:57:50;9.60;99.90
21033;DHT22;10675;47.976;7.824;2024-03-07T16:00:19;9.50;99.90
21033;DHT22;10675;47.976;7.824;2024-03-07T16:02:59;9.50;99.90
21033;DHT22;10675;47.976;7.824;2024-03-07T16:05:26;9.60;99.90
21033;DHT22;10675;47.976;7.824;2024-03-07T16:07:54;9.50;99.90
21033;DHT22;10675;47.976;7.824;2024-03-07T16:10:24;9.50;99.90
21033;DHT22;10675;47.976;7.824;2024-03-07T16:12:50;9.60;99.90
21033;DHT22;10675;47.976;7.824;2024-03-07T16:15:16;9.50;99.90
21033;DHT22;10675;47.976;7.824;2024-03-07T16:17:45;9.50;99.90
21033;DHT22;10675;47.976;7.824;2024-03-07T16:20:11;9.50;99.90